createdAt,value
2023-02-20T00:00:06.253Z,74.94
2023-02-20T00:02:41.663Z,74.70
2023-02-20T00:05:15.321Z,74.76
2023-02-20T00:07:47.850Z,74.94
2023-02-20T00:10:19.910Z,75.37
2023-02-20T00:12:52.387Z,75.61
2023-02-20T00:15:25.354Z,75.49
2023-02-20T00:17:57.669Z,75.28
2023-02-20T00:20:30.413Z,75.48
2023-02-20T00:23:02.592Z,75.34
2023-02-20T00:25:34.647Z,75.73
2023-02-20T00:28:07.624Z,75.57
2023-02-20T00:30:40.344Z,75.79
2023-02-20T00:33:12.560Z,75.97
2023-02-20T00:35:44.946Z,75.95
2023-02-20T00:38:17.471Z,75.63
2023-02-20T00:40:49.919Z,75.36
2023-02-20T00:43:22.355Z,75.20
2023-02-20T00:45:55.965Z,75.08
2023-02-20T00:48:28.541Z,75.13
2023-02-20T00:51:20.773Z,75.10
2023-02-20T00:53:52.985Z,75.15
2023-02-20T00:56:25.160Z,75.12
2023-02-20T00:58:57.222Z,75.26
2023-02-20T01:01:30.790Z,75.34
2023-02-20T01:04:03.060Z,75.01
2023-02-20T01:06:36.145Z,74.65
2023-02-20T01:09:08.317Z,74.41
2023-02-20T01:11:42.308Z,74.29
2023-02-20T01:14:15.428Z,74.12
2023-02-20T01:16:52.843Z,74.29
2023-02-20T01:19:26.224Z,73.97
2023-02-20T01:21:58.570Z,73.42
2023-02-20T01:24:31.903Z,73.61
2023-02-20T01:27:04.282Z,74.28
2023-02-20T01:29:36.650Z,74.34
2023-02-20T01:32:08.914Z,74.46
2023-02-20T01:34:42.086Z,74.11
2023-02-20T01:37:16.641Z,73.84
2023-02-20T01:39:50.320Z,73.50
2023-02-20T01:42:26.393Z,73.88
2023-02-20T01:45:19.467Z,73.43
2023-02-20T01:47:53.091Z,73.39
2023-02-20T01:50:30.332Z,73.38
2023-02-20T01:53:08.340Z,73.47
2023-02-20T01:55:44.812Z,73.13
2023-02-20T01:58:22.521Z,73.27
2023-02-20T02:00:57.451Z,73.37
2023-02-20T02:03:35.760Z,73.65
2023-02-20T02:06:11.582Z,73.76
2023-02-20T02:08:46.915Z,73.20
2023-02-20T02:11:23.517Z,73.60
2023-02-20T02:13:56.089Z,73.41
2023-02-20T02:16:46.875Z,73.12
2023-02-20T02:19:36.578Z,73.07
2023-02-20T02:22:27.066Z,72.83
2023-02-20T02:25:26.338Z,73.25
2023-02-20T02:28:31.428Z,73.44
2023-02-20T02:31:44.758Z,74.02
2023-02-20T02:34:46.745Z,73.73
2023-02-20T02:37:24.712Z,74.50
2023-02-20T02:40:02.929Z,74.45
2023-02-20T02:42:47.387Z,74.78
2023-02-20T02:45:29.965Z,74.91
2023-02-20T02:48:13.426Z,74.64
2023-02-20T02:50:49.635Z,74.35
2023-02-20T02:53:22.318Z,74.33
2023-02-20T02:55:54.795Z,74.22
2023-02-20T02:58:27.046Z,73.91
2023-02-20T03:01:03.024Z,74.22
2023-02-20T03:03:39.798Z,74.16
2023-02-20T03:06:18.144Z,73.87
2023-02-20T03:08:58.717Z,73.83
2023-02-20T03:11:33.786Z,73.52
2023-02-20T03:14:28.026Z,73.52
2023-02-20T03:17:02.300Z,73.62
2023-02-20T03:19:38.874Z,73.80
2023-02-20T03:22:19.246Z,74.31
2023-02-20T03:24:58.633Z,74.34
2023-02-20T03:27:44.527Z,74.37
2023-02-20T03:30:22.537Z,74.20
2023-02-20T03:33:20.952Z,74.06
2023-02-20T03:36:12.880Z,73.68
2023-02-20T03:39:06.586Z,73.42
2023-02-20T03:41:59.126Z,73.28
2023-02-20T03:44:34.388Z,73.32
2023-02-20T03:47:10.088Z,73.71
2023-02-20T03:49:44.292Z,74.24
2023-02-20T03:52:19.070Z,74.48
2023-02-20T03:54:52.308Z,74.03
2023-02-20T03:57:29.296Z,73.80
2023-02-20T04:00:05.726Z,73.70
2023-02-20T04:02:49.614Z,73.71
2023-02-20T04:05:26.752Z,73.80
2023-02-20T04:08:05.670Z,73.83
2023-02-20T04:10:44.366Z,74.18
2023-02-20T04:13:18.897Z,74.63
2023-02-20T04:15:52.003Z,75.19
2023-02-20T04:18:24.931Z,74.95
2023-02-20T04:21:00.956Z,74.91
2023-02-20T04:23:42.423Z,74.74
2023-02-20T04:26:19.025Z,74.57
2023-02-20T04:28:53.697Z,74.43
2023-02-20T04:31:27.759Z,74.51
2023-02-20T04:34:00.631Z,74.29
2023-02-20T04:36:33.521Z,74.57
2023-02-20T04:39:06.197Z,74.71
2023-02-20T04:41:38.988Z,74.93
2023-02-20T04:44:29.748Z,75.41
2023-02-20T04:47:03.338Z,76.06
2023-02-20T04:49:36.105Z,76.26
2023-02-20T04:52:10.264Z,76.10
2023-02-20T04:54:42.388Z,75.89
2023-02-20T04:57:15.788Z,75.49
2023-02-20T04:59:48.224Z,75.30
2023-02-20T05:02:20.356Z,75.52
2023-02-20T05:04:52.504Z,75.17
2023-02-20T05:07:24.932Z,75.63
2023-02-20T05:09:57.777Z,75.56
2023-02-20T05:12:29.839Z,75.57
2023-02-20T05:15:02.286Z,75.40
2023-02-20T05:17:34.329Z,75.08
2023-02-20T05:20:07.799Z,75.07
2023-02-20T05:22:40.165Z,75.08
2023-02-20T05:25:13.573Z,75.41
2023-02-20T05:27:45.776Z,75.83
2023-02-20T05:30:17.967Z,75.82
2023-02-20T05:32:50.112Z,75.60
2023-02-20T05:35:22.342Z,75.73
2023-02-20T05:37:54.707Z,75.38
2023-02-20T05:40:26.947Z,75.28
2023-02-20T05:42:59.182Z,75.32
2023-02-20T05:45:31.261Z,75.63
2023-02-20T05:48:03.323Z,75.92
2023-02-20T05:50:35.394Z,76.47
2023-02-20T05:53:07.825Z,75.84
2023-02-20T05:55:39.826Z,75.85
2023-02-20T05:58:11.866Z,75.25
2023-02-20T06:00:44.184Z,75.13
2023-02-20T06:03:17.505Z,75.16
2023-02-20T06:05:49.665Z,75.09
2023-02-20T06:08:22.069Z,75.30
2023-02-20T06:10:54.638Z,75.62
2023-02-20T06:13:26.829Z,75.13
2023-02-20T06:15:58.933Z,74.67
2023-02-20T06:18:30.982Z,75.01
2023-02-20T06:21:03.046Z,74.85
2023-02-20T06:23:35.172Z,74.36
2023-02-20T06:26:08.470Z,74.60
2023-02-20T06:28:41.369Z,74.89
2023-02-20T06:31:14.214Z,74.94
2023-02-20T06:33:46.917Z,74.96
2023-02-20T06:36:25.400Z,75.25
2023-02-20T06:38:59.318Z,75.40
2023-02-20T06:41:32.566Z,74.92
2023-02-20T06:44:05.747Z,74.68
2023-02-20T06:46:38.897Z,74.28
2023-02-20T06:49:11.677Z,74.02
2023-02-20T06:51:44.377Z,73.89
2023-02-20T06:54:17.307Z,73.89
2023-02-20T06:56:50.223Z,73.82
2023-02-20T06:59:22.890Z,73.44
2023-02-20T07:01:55.358Z,73.76
2023-02-20T07:04:28.972Z,73.57
2023-02-20T07:07:02.026Z,73.42
2023-02-20T07:09:34.200Z,73.46
2023-02-20T07:12:07.075Z,72.56
2023-02-20T07:14:40.529Z,72.57
2023-02-20T07:17:16.830Z,72.79
2023-02-20T07:19:49.198Z,72.91
2023-02-20T07:22:21.349Z,73.13
2023-02-20T07:25:01.288Z,73.09
2023-02-20T07:27:36.155Z,73.40
2023-02-20T07:30:10.058Z,73.83
2023-02-20T07:32:43.059Z,73.65
2023-02-20T07:35:15.327Z,73.32
2023-02-20T07:37:47.857Z,73.76
2023-02-20T07:40:20.285Z,73.95
2023-02-20T07:42:52.394Z,73.98
2023-02-20T07:45:28.330Z,74.49
2023-02-20T07:48:01.255Z,74.95
2023-02-20T07:50:33.518Z,74.66
2023-02-20T07:53:06.360Z,74.52
2023-02-20T07:55:41.985Z,74.22
2023-02-20T07:58:14.873Z,74.25
2023-02-20T08:00:54.838Z,74.21
2023-02-20T08:03:27.279Z,74.17
2023-02-20T08:05:59.804Z,74.43
2023-02-20T08:08:32.819Z,74.56
2023-02-20T08:11:10.434Z,74.44
2023-02-20T08:13:44.358Z,74.32
2023-02-20T08:16:17.157Z,74.04
2023-02-20T08:18:51.617Z,74.19
2023-02-20T08:21:24.312Z,74.30
2023-02-20T08:23:56.699Z,74.50
2023-02-20T08:26:50.765Z,74.69
2023-02-20T08:29:31.676Z,74.81
2023-02-20T08:32:05.231Z,74.45
2023-02-20T08:34:38.143Z,74.20
2023-02-20T08:37:11.449Z,74.03
2023-02-20T08:39:43.950Z,74.07
2023-02-20T08:42:20.165Z,74.04
2023-02-20T08:44:52.617Z,74.09
2023-02-20T08:47:31.409Z,74.16
2023-02-20T08:50:05.220Z,74.00
2023-02-20T08:52:37.996Z,73.83
2023-02-20T08:55:10.941Z,73.48
2023-02-20T08:57:46.050Z,73.36
2023-02-20T09:00:23.060Z,73.51
2023-02-20T09:02:58.067Z,74.07
2023-02-20T09:05:32.104Z,74.13
2023-02-20T09:08:05.096Z,73.97
2023-02-20T09:10:37.941Z,73.91
2023-02-20T09:13:11.029Z,73.62
2023-02-20T09:15:44.626Z,74.00
2023-02-20T09:18:19.046Z,74.39
2023-02-20T09:20:53.174Z,74.47
2023-02-20T09:23:27.403Z,74.48
2023-02-20T09:25:59.600Z,74.51
2023-02-20T09:28:32.220Z,74.12
2023-02-20T09:31:05.620Z,74.08
2023-02-20T09:33:37.804Z,74.17
2023-02-20T09:36:16.537Z,74.55
2023-02-20T09:38:49.097Z,74.28
2023-02-20T09:41:37.035Z,74.17
2023-02-20T09:44:17.652Z,74.07
2023-02-20T09:46:51.969Z,73.87
2023-02-20T09:49:34.334Z,74.12
2023-02-20T09:52:12.122Z,74.04
2023-02-20T09:54:48.454Z,74.04
2023-02-20T09:57:26.906Z,74.11
2023-02-20T10:00:06.751Z,73.82
2023-02-20T10:02:44.195Z,74.00
2023-02-20T10:05:23.551Z,73.80
2023-02-20T10:07:57.131Z,73.19
2023-02-20T10:10:34.086Z,73.05
2023-02-20T10:13:23.324Z,72.88
2023-02-20T10:16:11.603Z,73.01
2023-02-20T10:18:55.476Z,72.73
2023-02-20T10:21:41.108Z,72.98
2023-02-20T10:24:26.598Z,72.89
2023-02-20T10:27:06.809Z,72.35
2023-02-20T10:29:41.732Z,72.69
2023-02-20T10:32:26.126Z,72.83
2023-02-20T10:35:07.138Z,73.25
2023-02-20T10:37:47.674Z,73.07
2023-02-20T10:40:30.659Z,72.97
2023-02-20T10:43:09.522Z,73.26
2023-02-20T10:45:51.323Z,72.94
2023-02-20T10:48:27.970Z,73.63
2023-02-20T10:51:08.233Z,73.24
2023-02-20T10:53:48.211Z,73.18
2023-02-20T10:56:27.909Z,72.50
2023-02-20T10:59:06.972Z,71.84
2023-02-20T11:01:41.421Z,71.64
2023-02-20T11:04:17.272Z,71.73
2023-02-20T11:06:57.432Z,71.70
2023-02-20T11:09:30.393Z,71.30
2023-02-20T11:12:06.762Z,71.26
2023-02-20T11:14:47.396Z,71.17
2023-02-20T11:17:23.827Z,71.26
2023-02-20T11:20:01.556Z,71.01
2023-02-20T11:22:45.695Z,71.11
2023-02-20T11:25:21.699Z,71.51
2023-02-20T11:27:54.653Z,71.52
2023-02-20T11:30:35.540Z,71.24
2023-02-20T11:33:13.582Z,71.41
2023-02-20T11:35:48.618Z,71.37
2023-02-20T11:38:34.209Z,70.86
2023-02-20T11:41:25.839Z,70.54
2023-02-20T11:44:21.135Z,70.23
2023-02-20T11:47:18.373Z,70.06
2023-02-20T11:49:51.250Z,70.22
2023-02-20T11:52:35.809Z,69.38
2023-02-20T11:55:25.343Z,69.01
2023-02-20T11:57:59.855Z,68.15
2023-02-20T12:00:47.838Z,67.91
2023-02-20T12:03:25.448Z,68.24
2023-02-20T12:05:59.060Z,67.81
2023-02-20T12:08:45.227Z,67.22
2023-02-20T12:11:21.005Z,66.38
2023-02-20T12:13:58.268Z,66.46
2023-02-20T12:16:53.468Z,66.60
2023-02-20T12:19:35.180Z,65.94
2023-02-20T12:22:20.843Z,66.00
2023-02-20T12:25:19.744Z,65.37
2023-02-20T12:28:10.763Z,65.35
2023-02-20T12:30:57.913Z,65.33
2023-02-20T12:33:55.029Z,64.71
2023-02-20T12:36:37.416Z,63.71
2023-02-20T12:39:23.773Z,63.78
2023-02-20T12:42:14.584Z,63.84
2023-02-20T12:45:11.790Z,63.89
2023-02-20T12:47:46.068Z,63.71
2023-02-20T12:50:36.082Z,63.12
2023-02-20T12:53:16.766Z,63.30
2023-02-20T12:56:00.201Z,63.21
2023-02-20T12:58:45.532Z,63.03
2023-02-20T13:01:34.197Z,62.46
2023-02-20T13:04:24.822Z,62.35
2023-02-20T13:07:05.021Z,62.89
2023-02-20T13:09:43.928Z,63.09
2023-02-20T13:12:18.672Z,63.32
2023-02-20T13:15:02.288Z,63.55
2023-02-20T13:17:44.897Z,63.96
2023-02-20T13:20:24.150Z,63.88
2023-02-20T13:23:07.381Z,63.69
2023-02-20T13:25:46.967Z,63.37
2023-02-20T13:28:43.307Z,63.12
2023-02-20T13:31:24.799Z,62.91
2023-02-20T13:34:30.557Z,62.49
2023-02-20T13:37:04.418Z,62.42
2023-02-20T13:39:45.381Z,62.06
2023-02-20T13:42:43.805Z,62.14
2023-02-20T13:45:39.430Z,62.84
2023-02-20T13:48:44.317Z,62.67
2023-02-20T13:51:37.782Z,63.34
2023-02-20T13:54:28.114Z,63.56
2023-02-20T13:57:15.243Z,64.05
2023-02-20T13:59:58.313Z,64.48
2023-02-20T14:02:44.261Z,64.07
2023-02-20T14:05:25.446Z,63.89
2023-02-20T14:07:58.827Z,64.40
2023-02-20T14:10:34.853Z,63.95
2023-02-20T14:13:08.494Z,63.97
2023-02-20T14:15:47.435Z,64.11
2023-02-20T14:18:26.652Z,63.83
2023-02-20T14:21:10.290Z,63.81
2023-02-20T14:23:50.445Z,63.48
2023-02-20T14:26:24.946Z,62.08
2023-02-20T14:28:59.629Z,60.49
2023-02-20T14:31:35.292Z,59.52
2023-02-20T14:34:25.941Z,59.26
2023-02-20T14:37:15.285Z,59.49
2023-02-20T14:39:54.575Z,58.92
2023-02-20T14:42:28.252Z,57.95
2023-02-20T14:45:14.141Z,57.87
2023-02-20T14:48:00.316Z,58.43
2023-02-20T14:50:34.834Z,59.12
2023-02-20T14:53:14.482Z,59.42
2023-02-20T14:55:47.241Z,59.79
2023-02-20T14:58:23.652Z,60.76
2023-02-20T15:00:58.012Z,61.00
2023-02-20T15:03:36.697Z,61.37
2023-02-20T15:06:15.515Z,61.60
2023-02-20T15:08:48.271Z,61.78
2023-02-20T15:11:21.089Z,62.24
2023-02-20T15:13:54.972Z,62.42
2023-02-20T15:16:29.705Z,62.73
2023-02-20T15:19:03.013Z,63.25
2023-02-20T15:21:38.854Z,63.49
2023-02-20T15:24:32.644Z,63.10
2023-02-20T15:27:13.764Z,63.43
2023-02-20T15:29:47.810Z,62.96
2023-02-20T15:32:26.486Z,62.76
2023-02-20T15:35:02.078Z,63.02
2023-02-20T15:37:39.203Z,63.12
2023-02-20T15:40:26.552Z,63.15
2023-02-20T15:43:04.374Z,63.50
2023-02-20T15:45:42.201Z,63.62
2023-02-20T15:48:14.481Z,63.69
2023-02-20T15:50:47.229Z,64.08
2023-02-20T15:53:22.797Z,64.34
2023-02-20T15:55:56.388Z,64.88
2023-02-20T15:58:34.915Z,65.23
2023-02-20T16:01:09.087Z,65.09
2023-02-20T16:03:51.702Z,64.98
2023-02-20T16:06:26.146Z,64.82
2023-02-20T16:08:59.604Z,64.92
2023-02-20T16:11:39.700Z,64.90
2023-02-20T16:14:14.368Z,65.10
2023-02-20T16:16:49.471Z,65.28
2023-02-20T16:19:36.568Z,65.26
2023-02-20T16:22:13.705Z,65.78
2023-02-20T16:24:47.221Z,66.41
2023-02-20T16:27:24.341Z,66.59
2023-02-20T16:29:59.226Z,66.39
2023-02-20T16:32:32.007Z,65.99
2023-02-20T16:35:05.482Z,65.94
2023-02-20T16:37:38.556Z,65.77
2023-02-20T16:40:12.370Z,65.73
2023-02-20T16:42:45.002Z,65.64
2023-02-20T16:45:20.621Z,65.75
2023-02-20T16:47:55.565Z,65.52
2023-02-20T16:50:30.521Z,65.63
2023-02-20T16:53:06.506Z,65.69
2023-02-20T16:55:42.263Z,65.92
2023-02-20T16:58:16.141Z,66.18
2023-02-20T17:00:57.670Z,65.90
2023-02-20T17:03:32.290Z,65.64
2023-02-20T17:06:04.530Z,65.61
2023-02-20T17:08:36.731Z,65.67
2023-02-20T17:11:09.415Z,65.78
2023-02-20T17:13:41.618Z,65.73
2023-02-20T17:16:19.340Z,65.58
2023-02-20T17:18:58.109Z,65.69
2023-02-20T17:21:30.721Z,65.96
2023-02-20T17:24:02.889Z,66.14
2023-02-20T17:26:38.618Z,65.95
2023-02-20T17:29:11.490Z,65.92
2023-02-20T17:31:43.778Z,65.89
2023-02-20T17:34:16.468Z,65.80
2023-02-20T17:36:49.450Z,65.89
2023-02-20T17:39:24.060Z,65.98
2023-02-20T17:41:58.134Z,66.01
2023-02-20T17:44:32.196Z,66.07
2023-02-20T17:47:04.600Z,66.40
2023-02-20T17:49:37.168Z,66.77
2023-02-20T17:52:11.701Z,67.03
2023-02-20T17:54:48.376Z,67.19
2023-02-20T17:57:22.187Z,67.10
2023-02-20T17:59:54.437Z,67.12
2023-02-20T18:02:26.888Z,67.02
2023-02-20T18:05:00.142Z,66.85
2023-02-20T18:07:32.643Z,66.82
2023-02-20T18:10:05.347Z,66.73
2023-02-20T18:12:39.136Z,66.47
2023-02-20T18:15:12.158Z,66.15
2023-02-20T18:17:45.059Z,65.66
2023-02-20T18:20:17.845Z,65.19
2023-02-20T18:22:50.633Z,64.69
2023-02-20T18:25:37.836Z,64.32
2023-02-20T18:28:12.811Z,63.57
2023-02-20T18:30:46.441Z,63.02
2023-02-20T18:33:18.852Z,62.98
2023-02-20T18:36:07.300Z,62.36
2023-02-20T18:38:40.828Z,62.49
2023-02-20T18:41:14.840Z,62.44
2023-02-20T18:43:48.122Z,62.70
2023-02-20T18:46:29.816Z,62.76
2023-02-20T18:49:03.532Z,62.45
2023-02-20T18:51:37.229Z,62.53
2023-02-20T18:54:17.170Z,62.64
2023-02-20T18:56:51.575Z,62.79
2023-02-20T18:59:26.619Z,62.37
2023-02-20T19:02:03.407Z,62.79
2023-02-20T19:04:36.047Z,62.84
2023-02-20T19:07:09.651Z,63.09
2023-02-20T19:09:43.380Z,63.19
2023-02-20T19:12:16.015Z,63.34
2023-02-20T19:14:49.280Z,63.55
2023-02-20T19:17:22.128Z,63.79
2023-02-20T19:19:54.650Z,63.82
2023-02-20T19:22:27.499Z,63.24
2023-02-20T19:25:01.474Z,63.33
2023-02-20T19:27:34.744Z,63.20
2023-02-20T19:30:10.495Z,63.41
2023-02-20T19:32:43.629Z,63.35
2023-02-20T19:35:16.461Z,63.50
2023-02-20T19:37:49.662Z,63.80
2023-02-20T19:40:23.094Z,63.76
2023-02-20T19:42:55.570Z,63.88
2023-02-20T19:45:27.846Z,63.90
2023-02-20T19:48:00.210Z,63.98
2023-02-20T19:50:33.676Z,64.29
2023-02-20T19:53:06.303Z,64.24
2023-02-20T19:55:38.482Z,64.11
2023-02-20T19:58:10.700Z,63.86
2023-02-20T20:00:43.777Z,63.98
2023-02-20T20:03:16.496Z,63.87
2023-02-20T20:05:48.883Z,63.99
2023-02-20T20:08:22.115Z,64.17
2023-02-20T20:10:54.680Z,64.41
2023-02-20T20:13:27.744Z,64.55
2023-02-20T20:16:01.535Z,64.50
2023-02-20T20:18:34.748Z,64.72
2023-02-20T20:21:07.370Z,64.75
2023-02-20T20:23:39.771Z,65.07
2023-02-20T20:26:13.326Z,65.59
2023-02-20T20:28:46.310Z,65.92
2023-02-20T20:31:22.226Z,66.04
2023-02-20T20:33:55.762Z,65.97
2023-02-20T20:36:28.414Z,65.83
2023-02-20T20:39:01.706Z,65.71
2023-02-20T20:41:44.187Z,65.87
2023-02-20T20:44:20.428Z,65.72
2023-02-20T20:46:52.642Z,65.75
2023-02-20T20:49:27.921Z,66.07
2023-02-20T20:52:00.441Z,66.32
2023-02-20T20:54:32.832Z,66.36
2023-02-20T20:57:06.329Z,66.01
2023-02-20T20:59:41.798Z,65.78
2023-02-20T21:02:14.462Z,65.61
2023-02-20T21:04:50.988Z,65.54
2023-02-20T21:07:25.352Z,65.53
2023-02-20T21:09:57.562Z,65.10
2023-02-20T21:12:30.430Z,65.02
2023-02-20T21:15:04.027Z,65.09
2023-02-20T21:17:37.635Z,65.09
2023-02-20T21:20:13.148Z,64.69
2023-02-20T21:22:45.724Z,64.46
2023-02-20T21:25:18.166Z,64.20
2023-02-20T21:27:52.319Z,64.38
2023-02-20T21:30:27.275Z,63.83
2023-02-20T21:33:00.244Z,63.37
2023-02-20T21:35:32.417Z,63.24
2023-02-20T21:38:05.102Z,63.14
2023-02-20T21:40:37.561Z,63.15
2023-02-20T21:43:28.239Z,62.89
2023-02-20T21:46:00.705Z,63.03
2023-02-20T21:48:33.482Z,63.23
2023-02-20T21:51:05.894Z,63.01
2023-02-20T21:53:39.470Z,63.12
2023-02-20T21:56:11.572Z,63.20
2023-02-20T21:59:02.764Z,63.28
2023-02-20T22:01:37.977Z,63.22
2023-02-20T22:04:11.677Z,63.13
2023-02-20T22:06:44.299Z,63.31
2023-02-20T22:09:36.145Z,62.71
2023-02-20T22:12:26.394Z,62.89
2023-02-20T22:15:16.331Z,62.86
2023-02-20T22:18:06.574Z,62.89
2023-02-20T22:20:58.025Z,62.81
2023-02-20T22:23:47.975Z,62.75
2023-02-20T22:26:38.587Z,62.78
2023-02-20T22:29:30.237Z,62.58
2023-02-20T22:32:20.567Z,62.57
2023-02-20T22:35:12.369Z,62.78
2023-02-20T22:38:06.519Z,62.67
2023-02-20T22:40:56.396Z,62.33
2023-02-20T22:43:46.943Z,62.40
2023-02-20T22:46:42.270Z,62.26
2023-02-20T22:49:32.660Z,62.13
2023-02-20T22:52:24.371Z,61.92
2023-02-20T22:55:14.605Z,61.92
2023-02-20T22:58:04.684Z,62.06
2023-02-20T23:00:55.230Z,62.30
2023-02-20T23:03:45.134Z,62.44
2023-02-20T23:06:39.593Z,62.53
2023-02-20T23:09:31.183Z,62.44
2023-02-20T23:12:21.165Z,62.55
2023-02-20T23:15:11.541Z,62.48
2023-02-20T23:18:04.110Z,62.74
2023-02-20T23:20:54.083Z,62.81
2023-02-20T23:23:44.367Z,62.54
2023-02-20T23:26:34.479Z,62.17
2023-02-20T23:29:24.637Z,61.89
2023-02-20T23:32:14.724Z,62.00
2023-02-20T23:35:05.290Z,61.92
2023-02-20T23:37:55.431Z,61.86
2023-02-20T23:40:45.341Z,61.86
2023-02-20T23:43:35.672Z,62.23
2023-02-20T23:46:25.879Z,62.25
2023-02-20T23:49:17.020Z,62.06
2023-02-20T23:52:15.878Z,62.12
2023-02-20T23:55:06.503Z,62.50
2023-02-20T23:57:56.614Z,62.36
